Time;durP1;ratioP1;P1;durP2;ratioP2;P2;SDS_P1;SDS_P2;PMS_P1;PMS_P2;Temp;Humidity;BMP_temperature;BMP_pressure;BME280_temperature;BME280_humidity;BME280_pressure;Samples;Min_cycle;Max_cycle;Signal;HPM_P1;HPM_P2
2022/10/05 00:02:25;;;;;;;13.13;9.55;;;;;;;8.25;97.80;101433.09;4998707;28;20046;-66
2022/10/05 00:04:56;;;;;;;14.82;9.93;;;;;;;8.23;97.99;101441.22;4998866;28;20037;-65
2022/10/05 00:07:23;;;;;;;15.05;10.23;;;;;;;8.15;97.88;101432.75;5001734;28;20022;-65
2022/10/05 00:09:55;;;;;;;14.32;10.15;;;;;;;8.19;97.94;101439.63;5002472;28;20036;-65
2022/10/05 00:12:22;;;;;;;14.50;9.32;;;;;;;8.03;97.80;101416.63;4998668;28;20316;-65
2022/10/05 00:14:51;;;;;;;16.17;9.60;;;;;;;8.14;98.33;101443.53;5005828;28;20037;-65
2022/10/05 00:17:22;;;;;;;13.70;9.35;;;;;;;8.14;98.16;101441.72;4994212;28;20034;-66
2022/10/05 00:19:52;;;;;;;13.98;9.25;;;;;;;8.05;98.12;101436.06;4995106;28;20385;-66
2022/10/05 00:22:30;;;;;;;12.95;9.65;;;;;;;8.06;98.07;101435.13;4997929;28;20528;-65
2022/10/05 00:24:59;;;;;;;14.27;10.13;;;;;;;8.02;98.08;101437.13;5005545;28;20022;-65
2022/10/05 00:27:31;;;;;;;15.18;9.27;;;;;;;7.93;98.03;101426.97;4979178;28;20477;-66
2022/10/05 00:29:59;;;;;;;12.63;9.43;;;;;;;7.83;97.80;101414.28;5007664;28;20029;-65
2022/10/05 00:32:25;;;;;;;15.40;9.65;;;;;;;7.93;98.09;101439.50;4997972;28;20706;-65
2022/10/05 00:34:50;;;;;;;16.33;9.27;;;;;;;7.92;97.78;101441.28;4997625;28;20034;-65
2022/10/05 00:37:16;;;;;;;13.13;9.45;;;;;;;7.90;97.36;101431.66;5007859;28;20115;-65
2022/10/05 00:39:42;;;;;;;11.63;9.10;;;;;;;7.86;97.87;101438.97;5007497;28;20037;-66
2022/10/05 00:42:26;;;;;;;17.95;10.02;;;;;;;7.89;98.21;101440.59;4996951;28;20152;-66
2022/10/05 00:45:04;;;;;;;11.35;9.10;;;;;;;7.86;98.07;101451.44;5004383;28;20038;-66
2022/10/05 00:47:33;;;;;;;11.68;9.43;;;;;;;7.83;98.24;101440.97;4976529;28;20022;-65
2022/10/05 00:50:05;;;;;;;13.65;9.13;;;;;;;7.83;98.51;101441.81;4998251;28;20049;-66
2022/10/05 00:52:56;;;;;;;12.25;9.38;;;;;;;7.78;98.39;101440.38;5002493;28;20026;-65
2022/10/05 00:55:33;;;;;;;15.20;10.27;;;;;;;7.76;98.00;101440.47;4991575;28;20117;-66
2022/10/05 00:58:05;;;;;;;11.05;8.73;;;;;;;7.75;98.29;101437.88;5007999;28;20037;-66
2022/10/05 01:00:34;;;;;;;11.68;8.38;;;;;;;7.68;98.24;101420.50;4997457;28;20469;-66
2022/10/05 01:03:12;;;;;;;14.45;9.38;;;;;;;7.50;97.80;101397.53;4998191;28;20462;-66
2022/10/05 01:05:44;;;;;;;13.85;9.18;;;;;;;7.65;97.42;101429.56;5004423;28;20477;-66
2022/10/05 01:08:09;;;;;;;12.50;8.93;;;;;;;7.65;97.64;101436.69;4996682;28;20045;-66
2022/10/05 01:10:48;;;;;;;12.63;9.43;;;;;;;7.54;97.85;101417.78;5003059;28;20021;-66
2022/10/05 01:13:40;;;;;;;13.27;9.07;;;;;;;7.63;98.57;101433.25;4993660;28;20508;-66
2022/10/05 01:16:26;;;;;;;13.20;9.50;;;;;;;7.59;97.36;101424.56;5000622;28;20085;-67
2022/10/05 01:19:06;;;;;;;13.18;9.18;;;;;;;7.57;97.26;101429.13;5005230;28;20060;-66
2022/10/05 01:21:41;;;;;;;13.05;9.15;;;;;;;7.52;96.80;101422.34;4994571;28;20034;-65
2022/10/05 01:24:15;;;;;;;13.63;8.75;;;;;;;7.52;96.77;101435.69;5001167;28;20030;-66
2022/10/05 01:26:58;;;;;;;11.70;9.48;;;;;;;7.43;96.94;101420.19;4995961;28;20033;-66
2022/10/05 01:29:32;;;;;;;12.63;9.27;;;;;;;7.40;97.01;101417.69;4973665;28;20100;-66
2022/10/05 01:32:16;;;;;;;;;;;;;;;7.46;97.68;101428.03;4997640;28;20061;-66
2022/10/05 01:34:49;;;;;;;12.43;9.30;;;;;;;7.46;98.73;101433.38;5004215;28;19913;-66
2022/10/05 01:37:27;;;;;;;12.75;8.93;;;;;;;7.44;99.06;101430.78;4993213;28;20469;-66
2022/10/05 01:40:01;;;;;;;13.90;9.88;;;;;;;7.40;98.96;101431.91;5000857;28;20049;-66
2022/10/05 01:42:46;;;;;;;15.35;9.30;;;;;;;7.38;98.80;101435.63;4997267;28;20108;-66
2022/10/05 01:45:14;;;;;;;14.10;9.38;;;;;;;7.36;97.94;101434.84;5004874;28;20485;-66
2022/10/05 01:47:46;;;;;;;14.77;8.88;;;;;;;7.36;97.39;101442.84;4989991;28;20093;-66
2022/10/05 01:50:30;;;;;;;13.63;9.57;;;;;;;7.21;97.60;101419.69;4990263;28;20038;-66
2022/10/05 01:53:21;;;;;;;14.88;10.13;;;;;;;7.21;97.67;101422.34;4999150;28;20161;-66
2022/10/05 01:56:34;;;;;;;13.38;9.50;;;;;;;7.27;97.30;101441.56;4996479;28;20030;-66
2022/10/05 01:59:15;;;;;;;10.93;8.77;;;;;;;7.25;98.00;101446.09;4972266;28;20045;-67
2022/10/05 02:01:48;;;;;;;13.90;9.40;;;;;;;7.23;97.75;101437.34;5001258;28;20602;-66
2022/10/05 02:04:31;;;;;;;12.25;9.35;;;;;;;7.16;98.62;101437.78;4996634;28;20042;-67
2022/10/05 02:07:00;;;;;;;11.98;9.52;;;;;;;7.16;98.38;101446.63;4997484;28;20061;-66
2022/10/05 02:09:30;;;;;;;11.30;9.50;;;;;;;7.17;99.02;101442.16;4985691;28;20034;-66
2022/10/05 02:12:10;;;;;;;14.07;9.52;;;;;;;7.16;100.00;101445.78;5001214;28;20036;-66
2022/10/05 02:14:40;;;;;;;15.63;10.40;;;;;;;7.30;100.00;101475.22;5001361;28;20030;-66
2022/10/05 02:17:13;;;;;;;13.93;9.98;;;;;;;7.26;100.00;101466.53;4992786;28;20035;-66
2022/10/05 02:19:41;;;;;;;13.77;10.10;;;;;;;7.30;100.00;101470.75;5001176;28;20563;-66
2022/10/05 02:22:16;;;;;;;14.18;10.45;;;;;;;7.34;100.00;101474.09;4999897;28;20096;-66
2022/10/05 02:24:49;;;;;;;16.98;10.48;;;;;;;7.23;100.00;101465.81;4997730;28;20058;-66
2022/10/05 02:27:23;;;;;;;13.98;10.68;;;;;;;7.32;100.00;101473.31;4990856;28;20117;-66
2022/10/05 02:29:51;;;;;;;13.02;10.13;;;;;;;7.34;100.00;101487.44;5000199;28;20099;-66
2022/10/05 02:32:21;;;;;;;14.60;11.27;;;;;;;7.38;100.00;101491.66;4998300;28;20469;-66
2022/10/05 02:34:46;;;;;;;16.92;10.70;;;;;;;7.37;100.00;101485.47;5005115;28;20038;-66
2022/10/05 02:37:14;;;;;;;16.00;11.18;;;;;;;7.38;100.00;101492.50;4995708;28;20076;-66
2022/10/05 02:39:56;;;;;;;17.35;12.00;;;;;;;7.38;100.00;101494.34;4995880;28;21908;-65
2022/10/05 02:42:32;;;;;;;17.77;11.20;;;;;;;7.38;100.00;101481.84;4995510;28;20405;-65
2022/10/05 02:45:22;;;;;;;17.52;10.68;;;;;;;7.40;100.00;101492.41;5009037;28;20029;-65
2022/10/05 02:48:14;;;;;;;17.65;11.13;;;;;;;7.33;100.00;101488.38;4986568;28;20033;-66
2022/10/05 02:50:47;;;;;;;16.60;11.35;;;;;;;7.34;100.00;101495.44;4998768;28;20042;-65
2022/10/05 02:53:13;;;;;;;14.85;10.55;;;;;;;7.34;100.00;101490.09;5008739;28;20048;-65
2022/10/05 02:55:41;;;;;;;15.80;11.45;;;;;;;7.34;100.00;101495.44;4983205;28;20022;-65
2022/10/05 02:58:24;;;;;;;16.38;11.48;;;;;;;7.31;100.00;101500.94;4999920;28;20042;-66
2022/10/05 03:01:02;;;;;;;17.75;11.30;;;;;;;7.25;100.00;101494.13;5008413;28;20396;-65
2022/10/05 03:03:38;;;;;;;17.88;12.50;;;;;;;7.33;100.00;101510.59;4987023;28;20034;-73
2022/10/05 03:06:14;;;;;;;15.93;11.38;;;;;;;7.29;100.00;101502.84;5014725;28;20069;-73
2022/10/05 03:09:08;;;;;;;15.52;10.68;;;;;;;7.24;100.00;101497.75;5013358;28;20507;-73
2022/10/05 03:11:50;;;;;;;16.10;10.80;;;;;;;7.24;100.00;101502.22;4976371;28;20464;-73
2022/10/05 03:14:21;;;;;;;16.00;11.40;;;;;;;7.23;100.00;101504.06;4994989;28;20033;-73
2022/10/05 03:17:12;;;;;;;18.50;11.48;;;;;;;7.19;100.00;101507.81;4993703;28;20174;-73
2022/10/05 03:20:09;;;;;;;15.90;11.07;;;;;;;7.18;100.00;101503.44;4975430;28;20113;-73
2022/10/05 03:22:51;;;;;;;14.98;10.27;;;;;;;7.12;100.00;101497.59;4974405;28;20041;-73
2022/10/05 03:25:59;;;;;;;13.63;9.38;;;;;;;7.04;100.00;101496.16;4975821;28;20113;-73
2022/10/05 03:28:52;;;;;;;13.05;9.48;;;;;;;7.04;100.00;101501.50;4998571;28;20127;-72
2022/10/05 03:31:33;;;;;;;17.48;10.30;;;;;;;7.03;100.00;101496.25;5003010;28;20072;-72
2022/10/05 03:34:04;;;;;;;12.50;9.88;;;;;;;6.99;100.00;101508.03;5008646;28;20034;-72
2022/10/05 03:36:45;;;;;;;13.00;9.13;;;;;;;6.94;100.00;101508.28;5014280;28;20038;-72
2022/10/05 03:39:25;;;;;;;13.15;9.40;;;;;;;6.80;100.00;101483.31;4998632;28;20034;-73
2022/10/05 03:42:07;;;;;;;12.25;8.68;;;;;;;6.88;100.00;101499.78;4999198;28;20124;-72
2022/10/05 03:44:59;;;;;;;12.85;9.80;;;;;;;6.87;100.00;101503.41;4994554;28;20038;-72
2022/10/05 03:47:51;;;;;;;12.38;9.55;;;;;;;6.75;100.00;101491.56;4975033;28;20398;-74
2022/10/05 03:50:41;;;;;;;11.77;8.40;;;;;;;6.83;100.00;101501.81;4994493;28;20033;-73
2022/10/05 03:53:22;;;;;;;11.27;8.98;;;;;;;6.79;100.00;101500.25;4993023;28;20396;-74
2022/10/05 03:56:02;;;;;;;9.35;8.20;;;;;;;6.77;100.00;101486.13;4974547;28;20034;-73
2022/10/05 03:58:34;;;;;;;13.65;8.27;;;;;;;6.74;100.00;101492.50;5005827;28;20081;-73
2022/10/05 04:01:07;;;;;;;12.18;9.13;;;;;;;6.71;100.00;101483.81;4992991;28;20034;-74
2022/10/05 04:03:37;;;;;;;13.20;9.32;;;;;;;6.69;100.00;101481.25;4999097;28;20037;-74
2022/10/05 04:06:29;;;;;;;11.68;8.65;;;;;;;6.66;100.00;101473.41;5012197;28;20046;-73
2022/10/05 04:09:13;;;;;;;9.68;8.38;;;;;;;6.67;100.00;101480.44;4990649;28;20677;-74
2022/10/05 04:11:49;;;;;;;12.48;9.38;;;;;;;6.64;100.00;101483.28;4993632;28;20025;-74
2022/10/05 04:14:22;;;;;;;11.85;9.23;;;;;;;6.68;100.00;101492.00;4987284;28;20031;-74
2022/10/05 04:17:03;;;;;;;12.77;9.70;;;;;;;6.64;100.00;101485.06;4983719;28;20038;-73
2022/10/05 04:19:50;;;;;;;12.85;8.98;;;;;;;6.64;100.00;101477.94;4981054;28;20482;-72
2022/10/05 04:22:30;;;;;;;12.88;9.38;;;;;;;6.55;100.00;101474.91;4994561;28;20030;-73
2022/10/05 04:25:12;;;;;;;12.30;8.98;;;;;;;6.61;100.00;101491.44;4982735;28;20042;-73
2022/10/05 04:27:56;;;;;;;11.35;8.40;;;;;;;6.59;100.00;101485.34;4988283;28;20102;-73
2022/10/05 04:30:22;;;;;;;16.15;9.73;;;;;;;6.54;100.00;101479.38;4995633;28;20025;-73
2022/10/05 04:32:56;;;;;;;12.85;8.18;;;;;;;6.49;99.91;101473.41;4982374;28;20096;-73
2022/10/05 04:35:35;;;;;;;14.07;9.35;;;;;;;6.57;100.00;101495.22;4998962;28;20089;-73
2022/10/05 04:38:26;;;;;;;14.40;9.35;;;;;;;6.52;99.98;101486.59;4987648;28;20477;-73
2022/10/05 04:41:33;;;;;;;14.57;8.55;;;;;;;6.51;100.00;101495.53;4988778;28;20055;-73
2022/10/05 04:44:17;;;;;;;12.20;9.40;;;;;;;6.49;99.97;101502.72;4981734;28;20558;-73
2022/10/05 04:47:12;;;;;;;12.50;8.68;;;;;;;6.48;100.00;101509.00;4987489;28;20062;-73
2022/10/05 04:50:00;;;;;;;12.93;8.55;;;;;;;6.47;100.00;101517.97;4979784;28;20070;-74
2022/10/05 04:53:03;;;;;;;11.10;8.70;;;;;;;6.45;100.00;101527.81;4985560;28;20038;-75
2022/10/05 04:55:54;;;;;;;14.07;8.15;;;;;;;6.43;99.72;101527.06;4992840;28;20068;-74
2022/10/05 04:58:28;;;;;;;10.23;7.82;;;;;;;6.43;99.85;101527.06;4973567;28;20482;-74
2022/10/05 05:01:12;;;;;;;12.50;9.23;;;;;;;6.39;99.55;101533.47;4991630;28;20029;-74
2022/10/05 05:03:57;;;;;;;12.48;9.10;;;;;;;6.40;99.91;101534.34;4992687;28;20713;-74
2022/10/05 05:07:00;;;;;;;12.27;8.35;;;;;;;6.41;100.00;101547.59;4989179;28;20038;-72
2022/10/05 05:09:40;;;;;;;13.43;8.43;;;;;;;6.38;100.00;101545.06;4985142;28;20026;-73
2022/10/05 05:12:20;;;;;;;14.77;9.07;;;;;;;6.36;100.00;101544.28;5000447;28;20025;-73
2022/10/05 05:15:05;;;;;;;10.75;8.02;;;;;;;6.37;100.00;101539.81;4974397;28;20110;-74
2022/10/05 05:17:40;;;;;;;12.50;8.60;;;;;;;6.40;100.00;101545.00;4989853;28;20102;-74
2022/10/05 05:20:32;;;;;;;21.10;10.52;;;;;;;6.39;100.00;101541.47;4992631;28;20022;-74
2022/10/05 05:23:36;;;;;;;18.90;10.77;;;;;;;6.40;100.00;101537.00;4989846;28;20046;-74
2022/10/05 05:26:15;;;;;;;16.73;11.07;;;;;;;6.43;100.00;101529.72;4993458;28;20089;-74
2022/10/05 05:28:57;;;;;;;18.23;11.32;;;;;;;6.46;100.00;101536.69;5007112;28;20030;-74
2022/10/05 05:31:31;;;;;;;22.85;12.93;;;;;;;6.48;100.00;101533.00;4994739;28;20507;-74
2022/10/05 05:34:48;;;;;;;25.48;14.82;;;;;;;6.54;100.00;101538.00;4992895;28;20056;-74
2022/10/05 05:37:41;;;;;;;26.60;13.75;;;;;;;6.60;100.00;101534.16;4984172;28;20042;-74
2022/10/05 05:40:15;;;;;;;22.00;14.40;;;;;;;6.65;100.00;101532.97;4993690;28;20042;-74
2022/10/05 05:43:00;;;;;;;26.35;15.48;;;;;;;6.71;100.00;101537.16;4992470;28;20051;-74
2022/10/05 05:45:42;;;;;;;27.40;16.52;;;;;;;6.80;100.00;101548.16;4994030;28;20440;-74
2022/10/05 05:48:17;;;;;;;24.65;15.25;;;;;;;6.88;100.00;101540.66;4992313;28;20478;-75
2022/10/05 05:51:01;;;;;;;29.10;15.60;;;;;;;6.96;100.00;101537.53;4993731;28;20639;-73
2022/10/05 05:53:37;;;;;;;;;;;;;;;7.03;100.00;101538.09;4974272;28;20038;-73
2022/10/05 05:56:12;;;;;;;29.25;14.90;;;;;;;7.03;100.00;101531.81;4996899;28;20478;-65
2022/10/05 05:58:46;;;;;;;28.77;14.65;;;;;;;7.13;100.00;101534.84;4988587;28;20038;-65
2022/10/05 06:01:25;;;;;;;26.38;14.60;;;;;;;7.17;100.00;101519.53;4989418;28;20478;-65
2022/10/05 06:03:59;;;;;;;29.27;15.23;;;;;;;7.42;100.00;101539.47;4989397;28;20057;-66
2022/10/05 06:06:29;;;;;;;;;;;;;;;7.53;100.00;101530.81;4989862;28;20053;-66
2022/10/05 06:09:11;;;;;;;26.58;14.35;;;;;;;7.65;100.00;101543.50;5004151;28;19955;-66
2022/10/05 06:11:45;;;;;;;25.35;15.10;;;;;;;7.75;100.00;101526.88;4992885;28;20034;-66
2022/10/05 06:14:22;;;;;;;27.92;15.27;;;;;;;7.94;100.00;101529.34;4992619;28;20041;-65
2022/10/05 06:17:02;;;;;;;24.58;14.52;;;;;;;8.06;100.00;101542.84;4992903;28;20049;-65
2022/10/05 06:19:31;;;;;;;27.00;15.93;;;;;;;8.09;100.00;101512.44;4992609;28;20374;-66
2022/10/05 06:21:59;;;;;;;34.80;15.88;;;;;;;8.39;100.00;101548.91;4992967;28;20128;-65
2022/10/05 06:24:38;;;;;;;25.27;15.35;;;;;;;8.56;100.00;101551.47;4992997;28;20040;-66
2022/10/05 06:27:27;;;;;;;27.25;16.15;;;;;;;8.79;100.00;101563.44;4995258;28;20036;-66
2022/10/05 06:30:09;;;;;;;25.38;16.48;;;;;;;8.90;100.00;101548.44;4978055;28;20445;-66
2022/10/05 06:33:06;;;;;;;22.67;15.88;;;;;;;9.22;100.00;101565.19;4999377;28;20032;-66
2022/10/05 06:35:45;;;;;;;23.48;16.45;;;;;;;9.48;100.00;101568.91;4989612;28;20057;-66
2022/10/05 06:38:40;;;;;;;33.97;20.98;;;;;;;9.69;100.00;101563.03;4991746;28;20042;-66
2022/10/05 06:41:05;;;;;;;;;;;;;;;9.91;100.00;101570.53;4982794;28;20054;-67
2022/10/05 06:43:51;;;;;;;44.08;26.05;;;;;;;10.15;100.00;101579.69;4991980;28;19964;-66
2022/10/05 06:46:26;;;;;;;63.08;36.20;;;;;;;10.43;100.00;101571.53;4991785;28;20568;-66
2022/10/05 06:49:16;;;;;;;64.97;38.92;;;;;;;10.64;100.00;101575.47;4991456;28;20026;-65
2022/10/05 06:52:12;;;;;;;59.63;34.40;;;;;;;10.88;100.00;101577.31;4983679;28;20034;-65
2022/10/05 06:54:45;;;;;;;60.45;33.53;;;;;;;11.12;100.00;101580.97;4982695;28;20478;-66
2022/10/05 06:57:43;;;;;;;51.58;30.30;;;;;;;11.39;100.00;101586.22;4991887;28;20026;-66
2022/10/05 07:00:19;;;;;;;46.53;27.55;;;;;;;11.68;100.00;101573.41;4991823;28;20036;-66
2022/10/05 07:02:51;;;;;;;42.17;23.27;;;;;;;11.96;100.00;101584.72;4991977;28;20034;-66
2022/10/05 07:05:37;;;;;;;38.10;22.15;;;;;;;12.23;100.00;101590.75;4983031;28;20452;-67
2022/10/05 07:08:06;;;;;;;37.20;21.85;;;;;;;12.48;100.00;101581.72;4990263;28;20041;-66
2022/10/05 07:10:36;;;;;;;38.03;23.77;;;;;;;12.72;100.00;101579.81;4981884;28;20062;-64
2022/10/05 07:13:32;;;;;;;43.08;26.00;;;;;;;13.12;99.92;101613.50;4995828;28;20101;-65
2022/10/05 07:16:07;;;;;;;47.33;27.35;;;;;;;13.46;98.16;101601.78;4994924;28;20032;-65
2022/10/05 07:19:03;;;;;;;51.53;27.40;;;;;;;13.98;95.29;101603.84;4985552;28;20027;-65
2022/10/05 07:21:51;;;;;;;40.92;26.75;;;;;;;14.39;92.62;101604.91;4984047;28;20031;-65
2022/10/05 07:24:21;;;;;;;33.08;22.58;;;;;;;15.02;88.89;101631.84;4982823;28;20042;-65
2022/10/05 07:26:59;;;;;;;33.42;18.42;;;;;;;15.54;84.28;101625.50;4988838;28;20471;-66
2022/10/05 07:29:44;;;;;;;20.83;15.57;;;;;;;16.35;78.99;101626.22;4991845;28;20033;-66
2022/10/05 07:32:39;;;;;;;20.40;14.25;;;;;;;17.11;72.37;101626.28;4984617;28;20080;-66
2022/10/05 07:38:10;;;;;;;27.15;14.75;;;;;;;18.81;63.94;101619.38;4984624;28;20575;-67
2022/10/05 07:41:08;;;;;;;17.88;12.35;;;;;;;19.82;59.57;101625.91;4990616;28;20393;-64
2022/10/05 07:43:51;;;;;;;16.98;11.52;;;;;;;20.55;56.23;101616.16;4984407;28;20474;-66
2022/10/05 07:46:23;;;;;;;19.92;12.00;;;;;;;20.91;54.38;101621.16;5001881;28;20064;-64
2022/10/05 07:49:12;;;;;;;17.15;11.70;;;;;;;20.98;53.65;101614.03;4992653;28;20576;-65
2022/10/05 07:51:40;;;;;;;22.25;13.70;;;;;;;21.12;53.07;101618.78;4990679;28;20030;-67
2022/10/05 07:54:29;;;;;;;22.08;13.40;;;;;;;21.24;52.32;101617.44;4990999;28;20049;-66
2022/10/05 07:57:29;;;;;;;19.40;13.50;;;;;;;21.43;52.31;101628.00;4989803;28;20041;-66
2022/10/05 08:00:03;;;;;;;19.77;14.50;;;;;;;21.60;51.63;101623.38;4991123;28;20038;-66
2022/10/05 08:02:44;;;;;;;20.10;13.38;;;;;;;22.26;50.35;101630.16;4990306;28;20026;-66
2022/10/05 08:05:18;;;;;;;21.10;12.30;;;;;;;22.87;48.45;101636.63;4991276;28;20497;-65
2022/10/05 08:07:45;;;;;;;17.27;11.85;;;;;;;23.37;46.72;101618.63;4990842;28;20084;-65
2022/10/05 08:10:30;;;;;;;16.48;10.85;;;;;;;24.01;45.16;101625.31;4991039;28;20117;-66
2022/10/05 08:13:11;;;;;;;13.98;9.80;;;;;;;24.42;43.95;101621.00;4989453;28;20030;-66
2022/10/05 08:15:46;;;;;;;12.45;9.30;;;;;;;24.04;44.16;101631.28;4990900;28;20117;-66
2022/10/05 08:18:49;;;;;;;12.10;9.10;;;;;;;23.01;46.76;101625.75;4990831;28;20054;-66
2022/10/05 08:21:19;;;;;;;14.95;8.50;;;;;;;22.17;48.78;101624.88;4991093;28;20724;-66
2022/10/05 08:23:54;;;;;;;11.40;8.88;;;;;;;21.45;50.51;101615.03;4991026;28;20404;-66
2022/10/05 08:26:24;;;;;;;11.10;7.97;;;;;;;20.98;52.06;101637.72;4990880;28;20382;-66
2022/10/05 08:28:53;;;;;;;10.23;8.05;;;;;;;20.61;53.22;101640.03;4989577;28;20033;-66
2022/10/05 08:31:30;;;;;;;14.68;8.57;;;;;;;20.14;54.43;101626.97;4990802;28;20027;-66
2022/10/05 08:34:16;;;;;;;10.68;7.35;;;;;;;19.86;55.74;101638.19;4990184;28;20034;-65
2022/10/05 08:36:52;;;;;;;11.35;7.95;;;;;;;19.82;55.90;101639.53;4990845;28;20030;-66
2022/10/05 08:39:19;;;;;;;10.60;7.43;;;;;;;19.82;55.64;101637.69;4985847;28;20035;-67
2022/10/05 08:42:41;;;;;;;10.07;7.15;;;;;;;20.80;54.18;101643.28;4990008;28;20109;-66
2022/10/05 08:45:31;;;;;;;11.60;6.95;;;;;;;23.52;47.04;101640.56;4968449;28;20280;-66
2022/10/05 08:48:31;;;;;;;11.57;7.00;;;;;;;25.37;42.76;101638.94;4968718;28;20081;-65
2022/10/05 08:50:57;;;;;;;9.05;6.40;;;;;;;27.03;38.54;101620.97;4977265;28;20054;-65
2022/10/05 08:53:54;;;;;;;7.03;4.78;;;;;;;27.96;36.63;101616.06;4989915;28;20116;-67
2022/10/05 08:56:31;;;;;;;11.45;5.07;;;;;;;28.77;35.24;101602.56;4989676;28;20034;-66
2022/10/05 08:59:34;;;;;;;5.72;4.35;;;;;;;29.41;33.76;101598.47;4988360;28;20030;-65
2022/10/05 09:02:19;;;;;;;6.82;3.97;;;;;;;30.36;32.47;101571.03;4990236;28;20053;-65
2022/10/05 09:05:06;;;;;;;4.97;3.40;;;;;;;30.67;31.88;101583.81;4990392;28;20497;-66
2022/10/05 09:07:50;;;;;;;6.40;3.50;;;;;;;30.78;31.48;101582.22;4988962;28;20033;-66
2022/10/05 09:10:59;;;;;;;4.72;3.20;;;;;;;30.98;30.94;101586.34;4989041;28;20030;-66
2022/10/05 09:13:43;;;;;;;5.80;3.30;;;;;;;31.33;30.37;101592.81;4990423;28;20026;-66
2022/10/05 09:16:37;;;;;;;;;;;;;;;30.99;30.46;101581.66;4990973;28;20026;-67
2022/10/05 09:19:08;;;;;;;;;;;;;;;31.68;29.22;101588.13;4954310;28;19997;-67
2022/10/05 09:21:42;;;;;;;5.80;2.22;;;;;;;32.19;27.61;101582.66;4990193;28;20405;-66
2022/10/05 09:24:13;;;;;;;3.55;2.50;;;;;;;32.18;27.94;101575.38;4990043;28;20674;-65
2022/10/05 09:26:50;;;;;;;5.07;2.70;;;;;;;31.50;28.55;101571.59;4991059;28;20034;-76
2022/10/05 09:29:53;;;;;;;4.53;2.70;;;;;;;30.70;29.53;101555.63;4991920;28;20453;-76
2022/10/05 09:32:36;;;;;;;5.28;2.53;;;;;;;30.52;29.86;101553.78;4991787;28;20512;-76
2022/10/05 09:35:21;;;;;;;;;;;;;;;31.47;27.46;101543.50;4991516;28;20068;-66
2022/10/05 09:38:05;;;;;;;5.13;1.70;;;;;;;31.93;27.59;101552.66;4990189;28;20331;-66
2022/10/05 09:40:34;;;;;;;5.63;2.17;;;;;;;31.63;28.27;101554.69;4990071;28;20034;-65
2022/10/05 09:43:33;;;;;;;4.15;1.92;;;;;;;31.20;28.42;101556.97;4990791;28;20092;-75
2022/10/05 09:46:25;;;;;;;4.25;2.30;;;;;;;31.70;28.21;101551.81;4992767;28;20504;-76
2022/10/05 09:49:00;;;;;;;3.22;1.65;;;;;;;32.11;26.84;101580.22;4995536;28;20021;-75
2022/10/05 09:51:31;;;;;;;3.63;1.70;;;;;;;31.15;28.08;101579.03;4994959;28;20035;-75
2022/10/05 09:54:23;;;;;;;2.95;1.60;;;;;;;30.42;28.98;101572.88;4993927;28;20929;-75
2022/10/05 09:57:10;;;;;;;4.00;1.80;;;;;;;30.99;28.20;101585.28;4995240;28;20584;-75
2022/10/05 09:59:45;;;;;;;3.17;1.60;;;;;;;31.52;27.44;101599.09;4993624;28;20129;-75
2022/10/05 10:02:25;;;;;;;2.22;1.30;;;;;;;32.40;26.65;101586.72;4994698;28;20101;-75
2022/10/05 10:05:30;;;;;;;6.15;1.40;;;;;;;32.54;26.16;101588.97;4994955;28;20030;-75
2022/10/05 10:08:19;;;;;;;3.92;1.63;;;;;;;32.94;25.71;101594.44;4953441;29;20038;-75
2022/10/05 10:11:07;;;;;;;2.33;1.52;;;;;;;33.27;24.64;101588.06;4993764;28;20038;-75
2022/10/05 10:14:04;;;;;;;2.75;1.58;;;;;;;33.19;24.70;101585.69;4993330;28;20088;-75
2022/10/05 10:17:05;;;;;;;3.67;1.90;;;;;;;31.89;25.78;101584.75;4994087;28;20042;-76
2022/10/05 10:20:03;;;;;;;2.97;1.70;;;;;;;31.07;27.45;101596.00;4994482;28;20102;-76
2022/10/05 10:22:49;;;;;;;3.05;1.60;;;;;;;30.80;28.11;101591.09;5005137;28;20042;-75
2022/10/05 10:25:51;;;;;;;3.55;1.73;;;;;;;29.99;28.62;101588.72;4993165;28;20453;-66
2022/10/05 10:28:38;;;;;;;3.92;2.15;;;;;;;29.19;29.60;101597.19;4992406;28;20030;-65
2022/10/05 10:31:15;;;;;;;3.67;1.80;;;;;;;28.38;30.86;101593.38;4993466;28;20030;-75
2022/10/05 10:34:08;;;;;;;3.58;1.52;;;;;;;26.90;33.26;101604.41;4991843;28;20050;-75
2022/10/05 10:36:55;;;;;;;3.17;1.58;;;;;;;25.82;34.23;101599.91;4997004;28;20041;-75
2022/10/05 10:39:39;;;;;;;3.20;1.63;;;;;;;25.27;35.53;101603.53;4993263;28;20463;-75
2022/10/05 10:42:04;;;;;;;;;;;;;;;24.45;37.19;101609.63;4993372;28;20139;-76
2022/10/05 10:44:55;;;;;;;3.33;1.73;;;;;;;24.10;37.56;101605.84;5008598;28;19910;-76
2022/10/05 10:47:59;;;;;;;2.38;1.40;;;;;;;23.61;38.43;101593.72;4996708;28;20779;-74
2022/10/05 10:50:55;;;;;;;3.13;1.83;;;;;;;23.24;38.81;101592.91;4992743;28;20030;-65
2022/10/05 10:54:11;;;;;;;5.20;1.63;;;;;;;23.02;39.64;101591.03;4992744;28;20037;-65
2022/10/05 10:56:53;;;;;;;6.85;1.75;;;;;;;22.46;40.50;101572.25;4970187;28;20436;-65
2022/10/05 10:59:25;;;;;;;4.05;1.70;;;;;;;22.29;41.24;101586.03;4994143;28;20034;-76
2022/10/05 11:02:02;;;;;;;4.68;1.55;;;;;;;22.03;41.63;101579.19;4994476;28;20129;-75
2022/10/05 11:05:12;;;;;;;3.47;1.70;;;;;;;21.77;42.17;101586.81;4994658;28;20030;-76
2022/10/05 11:07:56;;;;;;;2.95;1.45;;;;;;;21.59;41.88;101584.28;4976307;28;20073;-65
2022/10/05 11:10:38;;;;;;;2.80;1.58;;;;;;;21.49;41.89;101583.63;4991854;28;20093;-65
2022/10/05 11:13:23;;;;;;;2.17;1.38;;;;;;;21.36;41.57;101586.03;4992234;28;20034;-65
2022/10/05 11:16:13;;;;;;;3.13;1.50;;;;;;;21.24;42.09;101598.31;4991659;28;20473;-75
2022/10/05 11:18:57;;;;;;;2.05;1.15;;;;;;;21.16;42.06;101589.31;4993664;28;20026;-75
2022/10/05 11:21:35;;;;;;;5.10;1.40;;;;;;;21.10;42.86;101593.56;4992396;28;20125;-75
2022/10/05 11:24:28;;;;;;;3.22;1.50;;;;;;;21.21;41.34;101579.56;4993437;28;20045;-75
2022/10/05 11:27:07;;;;;;;3.38;1.48;;;;;;;21.10;42.13;101582.66;4992725;28;20038;-65
2022/10/05 11:29:50;;;;;;;4.65;1.67;;;;;;;21.09;42.37;101585.56;4991158;28;20045;-66
2022/10/05 11:32:28;;;;;;;2.73;1.47;;;;;;;21.06;42.69;101580.44;4990847;28;20290;-66
2022/10/05 11:34:56;;;;;;;2.92;1.25;;;;;;;21.04;41.88;101582.47;4991879;28;20038;-66
2022/10/05 11:37:40;;;;;;;2.67;1.35;;;;;;;20.93;42.43;101575.44;4990613;28;20827;-66
2022/10/05 11:41:01;;;;;;;2.47;1.38;;;;;;;20.81;42.62;101570.53;4991834;28;20054;-66
2022/10/05 11:43:36;;;;;;;4.82;1.83;;;;;;;20.73;42.65;101571.38;4991867;28;20050;-66
2022/10/05 11:46:34;;;;;;;3.28;1.35;;;;;;;20.65;42.74;101567.78;4991905;28;20050;-66
2022/10/05 11:49:18;;;;;;;3.63;1.40;;;;;;;20.55;42.94;101559.78;4991717;28;20023;-66
2022/10/05 11:52:39;;;;;;;2.15;1.20;;;;;;;20.40;43.25;101556.00;4991577;28;20072;-66
2022/10/05 11:55:35;;;;;;;5.28;1.50;;;;;;;20.28;43.97;101559.22;4990960;28;20065;-66
2022/10/05 11:58:14;;;;;;;2.20;1.20;;;;;;;20.10;44.41;101535.66;4991592;28;20034;-65
2022/10/05 12:00:45;;;;;;;4.68;1.35;;;;;;;20.17;44.02;101547.63;4991485;28;20530;-66
2022/10/05 12:03:28;;;;;;;2.90;1.60;;;;;;;20.06;44.74;101561.50;4991420;28;20049;-66
2022/10/05 12:06:14;;;;;;;2.45;1.70;;;;;;;19.87;44.70;101542.72;4991277;28;20385;-65
2022/10/05 12:08:51;;;;;;;2.42;1.48;;;;;;;19.96;45.03;101558.06;4990244;28;20030;-65
2022/10/05 12:11:23;;;;;;;2.40;0.90;;;;;;;19.95;44.70;101556.38;4989873;28;20039;-65
2022/10/05 12:14:00;;;;;;;4.82;1.33;;;;;;;19.96;44.83;101547.16;4991040;28;20537;-66
2022/10/05 12:16:34;;;;;;;2.92;1.20;;;;;;;20.03;44.69;101564.56;4989800;28;20092;-66
2022/10/05 12:19:26;;;;;;;4.60;1.25;;;;;;;20.01;45.44;101561.16;4989311;28;20037;-66
2022/10/05 12:22:08;;;;;;;2.72;1.10;;;;;;;20.02;44.89;101556.53;4989374;28;20508;-66
2022/10/05 12:24:34;;;;;;;3.85;1.67;;;;;;;20.01;45.08;101566.59;4990971;28;20037;-66
2022/10/05 12:27:14;;;;;;;4.53;1.85;;;;;;;20.02;45.10;101565.59;4990749;28;20030;-66
2022/10/05 12:29:46;;;;;;;4.63;1.40;;;;;;;20.05;45.04;101562.53;4989707;28;20413;-66